Ellijay, North Carolina
Current Conditions -  °F | °C
As of 11:55 AM on Monday 22 Dec 2014 (Local Time) from KRHP Reporting Station
Scattered Clouds Scattered Clouds  
Wind Chill: 54°   Ceiling: Unl
Heat Index: 54°   Visibility: 10mi
Dew Point: 45°   Wind: 5mph
Humidity: 71%   Direction: 280°W
Pressure: 29.96"   Gusts: NA
Location:  35.1737°N, 83.4215°W
Report Text: KRHP 221655Z AUTO 28004KT 10SM SCT100 12/07 A2996 RMK AO2 T01220071
Loading
Personal Weather Stations






























Interactive Weather Map New forecast layout! Learn more

10-Day Weather Forecast

Advertisements
Track Severe Weather on mobile